createdAt,value
2022-09-16T00:01:31.837Z,3.05
2022-09-16T00:03:58.343Z,2.90
2022-09-16T00:06:28.117Z,2.80
2022-09-16T00:11:22.730Z,2.90
2022-09-16T00:13:49.390Z,2.90
2022-09-16T00:16:27.552Z,2.95
2022-09-16T00:18:59.829Z,2.83
2022-09-16T00:21:28.506Z,2.50
2022-09-16T00:23:58.124Z,2.72
2022-09-16T00:26:25.858Z,2.72
2022-09-16T00:28:52.581Z,2.92
2022-09-16T00:31:19.610Z,2.85
2022-09-16T00:33:46.426Z,2.83
2022-09-16T00:36:15.839Z,2.80
2022-09-16T00:38:43.213Z,2.78
2022-09-16T00:41:16.349Z,3.13
2022-09-16T00:43:54.939Z,3.17
2022-09-16T00:46:28.308Z,2.75
2022-09-16T00:48:55.067Z,2.92
2022-09-16T00:51:22.768Z,3.05
2022-09-16T00:53:59.954Z,2.90
2022-09-16T00:56:29.221Z,2.92
2022-09-16T00:59:06.195Z,2.78
2022-09-16T01:01:32.906Z,3.00
2022-09-16T01:04:04.076Z,3.50
2022-09-16T01:06:32.339Z,3.42
2022-09-16T01:08:59.943Z,3.25
2022-09-16T01:11:26.967Z,3.60
2022-09-16T01:13:53.877Z,3.40
2022-09-16T01:16:34.344Z,3.55
2022-09-16T01:19:19.062Z,3.90
2022-09-16T01:22:00.537Z,3.75
2022-09-16T01:24:34.420Z,4.25
2022-09-16T01:27:25.609Z,4.28
2022-09-16T01:30:21.114Z,4.75
2022-09-16T01:33:08.774Z,3.80
2022-09-16T01:35:47.947Z,4.47
2022-09-16T01:38:26.141Z,4.75
2022-09-16T01:41:13.815Z,4.22
2022-09-16T01:44:32.892Z,4.60
2022-09-16T01:47:03.260Z,4.55
2022-09-16T01:49:38.978Z,4.90
2022-09-16T01:52:11.679Z,4.75
2022-09-16T01:54:41.604Z,4.60
2022-09-16T01:57:13.807Z,5.20
2022-09-16T01:59:54.364Z,5.10
2022-09-16T02:02:32.899Z,5.00
2022-09-16T02:05:03.724Z,5.10
2022-09-16T02:07:35.161Z,4.32
2022-09-16T02:10:20.312Z,5.10
2022-09-16T02:12:50.979Z,5.20
2022-09-16T02:15:22.596Z,5.60
2022-09-16T02:17:56.658Z,5.45
2022-09-16T02:20:27.384Z,5.10
2022-09-16T02:23:09.632Z,5.15
2022-09-16T02:25:39.533Z,5.95
2022-09-16T02:28:13.171Z,6.05
2022-09-16T02:30:45.053Z,5.53
2022-09-16T02:33:15.163Z,6.68
2022-09-16T02:35:47.668Z,6.22
2022-09-16T02:38:34.973Z,6.63
2022-09-16T02:41:02.261Z,6.60
2022-09-16T02:43:29.704Z,6.15
2022-09-16T02:46:02.376Z,6.68
2022-09-16T02:48:35.633Z,6.45
2022-09-16T02:51:23.988Z,6.15
2022-09-16T02:54:03.117Z,5.60
2022-09-16T02:56:34.541Z,5.25
2022-09-16T02:59:02.589Z,5.53
2022-09-16T03:01:32.313Z,5.35
2022-09-16T03:06:27.567Z,5.22
2022-09-16T03:08:58.541Z,5.70
2022-09-16T03:11:49.904Z,5.45
2022-09-16T03:14:19.475Z,5.25
2022-09-16T03:17:02.944Z,5.43
2022-09-16T03:19:48.166Z,5.72
2022-09-16T03:22:24.275Z,5.97
2022-09-16T03:25:16.903Z,5.18
2022-09-16T03:28:09.055Z,5.13
2022-09-16T03:30:43.588Z,5.07
2022-09-16T03:33:20.850Z,5.15
2022-09-16T03:35:49.740Z,5.65
2022-09-16T03:38:18.652Z,5.70
2022-09-16T03:40:48.452Z,5.80
2022-09-16T03:43:16.647Z,5.60
2022-09-16T03:45:43.976Z,5.38
2022-09-16T03:48:12.357Z,5.50
2022-09-16T03:50:39.014Z,4.85
2022-09-16T03:53:05.825Z,5.60
2022-09-16T03:55:32.480Z,4.82
2022-09-16T03:57:59.117Z,5.53
2022-09-16T04:00:25.770Z,5.55
2022-09-16T04:02:52.470Z,5.40
2022-09-16T04:05:19.081Z,5.57
2022-09-16T04:07:45.887Z,5.57
2022-09-16T04:10:12.695Z,5.50
2022-09-16T04:12:39.305Z,5.53
2022-09-16T04:15:06.648Z,5.60
2022-09-16T04:17:34.133Z,6.10
2022-09-16T04:20:01.211Z,5.68
2022-09-16T04:22:31.835Z,6.13
2022-09-16T04:24:58.508Z,5.85
2022-09-16T04:27:25.124Z,5.90
2022-09-16T04:29:51.729Z,5.45
2022-09-16T04:32:18.387Z,5.65
2022-09-16T04:34:45.806Z,5.82
2022-09-16T04:37:12.460Z,4.85
2022-09-16T04:39:39.086Z,4.47
2022-09-16T04:42:07.032Z,4.70
2022-09-16T04:44:33.859Z,4.50
2022-09-16T04:47:00.623Z,4.80
2022-09-16T04:49:27.263Z,4.82
2022-09-16T04:51:53.959Z,5.05
2022-09-16T04:54:20.623Z,4.30
2022-09-16T04:56:47.263Z,4.20
2022-09-16T04:59:13.875Z,5.18
2022-09-16T05:01:40.781Z,4.82
2022-09-16T05:04:08.043Z,4.88
2022-09-16T05:06:37.072Z,4.78
2022-09-16T05:09:04.516Z,4.93
2022-09-16T05:11:33.962Z,4.97
2022-09-16T05:14:02.515Z,4.45
2022-09-16T05:16:29.938Z,4.53
2022-09-16T05:18:58.664Z,5.22
2022-09-16T05:21:27.433Z,5.18
2022-09-16T05:23:56.001Z,7.63
2022-09-16T05:26:25.604Z,9.95
2022-09-16T05:28:52.799Z,9.85
2022-09-16T05:31:25.315Z,6.10
2022-09-16T05:34:13.599Z,7.70
2022-09-16T05:36:43.793Z,8.40
2022-09-16T05:39:22.736Z,8.77
2022-09-16T05:44:17.388Z,9.77
2022-09-16T05:46:44.004Z,11.98
2022-09-16T05:49:11.056Z,11.25
2022-09-16T05:51:39.133Z,7.72
2022-09-16T05:54:06.031Z,6.65
2022-09-16T05:56:33.053Z,6.43
2022-09-16T05:59:01.028Z,9.45
2022-09-16T06:01:31.019Z,8.40
2022-09-16T06:03:58.399Z,6.72
2022-09-16T06:06:33.685Z,5.97
2022-09-16T06:09:05.999Z,5.30
2022-09-16T06:11:37.101Z,5.93
2022-09-16T06:14:04.230Z,6.93
2022-09-16T06:16:33.258Z,7.70
2022-09-16T06:19:02.912Z,6.10
2022-09-16T06:23:57.151Z,6.45
2022-09-16T06:26:26.043Z,6.00
2022-09-16T06:28:53.596Z,5.60
2022-09-16T06:31:23.220Z,4.80
2022-09-16T06:36:20.742Z,7.15
2022-09-16T06:38:48.029Z,6.80
2022-09-16T06:41:15.982Z,7.13
2022-09-16T06:43:43.131Z,6.65
2022-09-16T06:46:16.255Z,5.55
2022-09-16T06:48:45.225Z,5.20
2022-09-16T06:51:17.270Z,5.68
2022-09-16T06:53:45.015Z,4.78
2022-09-16T06:56:14.189Z,5.10
2022-09-16T06:58:42.940Z,5.00
2022-09-16T07:01:10.977Z,5.10
2022-09-16T07:03:39.829Z,5.10
2022-09-16T07:06:07.416Z,4.70
2022-09-16T07:08:35.626Z,4.68
2022-09-16T07:11:04.154Z,4.50
2022-09-16T07:13:31.248Z,5.30
2022-09-16T07:16:13.004Z,5.18
2022-09-16T07:18:41.355Z,6.47
2022-09-16T07:21:16.962Z,7.78
2022-09-16T07:23:44.555Z,7.93
2022-09-16T07:26:14.001Z,7.57
2022-09-16T07:28:42.026Z,8.25
2022-09-16T07:31:18.758Z,6.63
2022-09-16T07:33:48.285Z,6.28
2022-09-16T07:36:19.121Z,5.72
2022-09-16T07:38:46.594Z,5.45
2022-09-16T07:41:23.243Z,5.45
2022-09-16T07:43:50.747Z,6.28
2022-09-16T07:46:19.873Z,6.25
2022-09-16T07:48:48.913Z,7.03
2022-09-16T07:51:18.478Z,6.85
2022-09-16T07:53:46.581Z,6.90
2022-09-16T07:56:16.531Z,6.75
2022-09-16T07:58:45.420Z,7.28
2022-09-16T08:01:13.318Z,6.97
2022-09-16T08:03:40.174Z,7.40
2022-09-16T08:06:09.724Z,7.88
2022-09-16T08:08:36.832Z,7.22
2022-09-16T08:11:04.388Z,7.43
2022-09-16T08:13:33.400Z,7.22
2022-09-16T08:16:03.483Z,7.83
2022-09-16T08:18:30.884Z,7.60
2022-09-16T08:20:59.401Z,7.47
2022-09-16T08:23:26.001Z,7.88
2022-09-16T08:25:59.688Z,7.25
2022-09-16T08:28:39.627Z,6.55
2022-09-16T08:31:15.092Z,6.07
2022-09-16T08:33:42.319Z,6.00
2022-09-16T08:36:23.368Z,6.30
2022-09-16T08:38:56.970Z,7.00
2022-09-16T08:41:29.439Z,6.63
2022-09-16T08:44:14.140Z,5.78
2022-09-16T08:46:55.371Z,5.85
2022-09-16T08:49:31.039Z,5.47
2022-09-16T08:52:00.845Z,5.63
2022-09-16T08:54:34.709Z,5.28
2022-09-16T08:57:04.979Z,5.47
2022-09-16T08:59:39.698Z,5.00
2022-09-16T09:02:22.249Z,5.00
2022-09-16T09:04:49.499Z,4.85
2022-09-16T09:08:00.730Z,4.80
2022-09-16T09:10:48.423Z,4.10
2022-09-16T09:13:30.967Z,4.30
2022-09-16T09:16:12.731Z,4.28
2022-09-16T09:18:59.417Z,4.53
2022-09-16T09:21:41.264Z,3.95
2022-09-16T09:24:07.879Z,3.78
2022-09-16T09:26:43.667Z,3.60
2022-09-16T09:29:48.000Z,3.95
2022-09-16T09:32:48.492Z,3.80
2022-09-16T09:35:34.727Z,4.45
2022-09-16T09:38:07.259Z,4.40
2022-09-16T09:40:46.018Z,4.28
2022-09-16T09:43:20.738Z,4.37
2022-09-16T09:45:59.606Z,4.00
2022-09-16T09:48:33.243Z,4.28
2022-09-16T09:51:05.701Z,3.97
2022-09-16T09:53:41.368Z,4.47
2022-09-16T09:56:07.927Z,4.40
2022-09-16T09:58:41.156Z,4.20
2022-09-16T10:01:09.077Z,4.10
2022-09-16T10:03:37.984Z,4.20
2022-09-16T10:06:05.021Z,4.13
2022-09-16T10:08:43.687Z,4.03
2022-09-16T10:11:22.737Z,4.15
2022-09-16T10:13:52.253Z,4.68
2022-09-16T10:16:22.056Z,4.40
2022-09-16T10:19:06.879Z,4.80
2022-09-16T10:21:47.651Z,4.80
2022-09-16T10:24:34.128Z,4.93
2022-09-16T10:27:03.062Z,4.90
2022-09-16T10:29:29.786Z,4.90
2022-09-16T10:31:58.638Z,5.18
2022-09-16T10:34:34.405Z,5.30
2022-09-16T10:37:13.301Z,5.40
2022-09-16T10:39:44.944Z,5.45
2022-09-16T10:42:23.464Z,5.45
2022-09-16T10:44:53.599Z,5.55
2022-09-16T10:47:29.190Z,4.93
2022-09-16T10:50:03.472Z,5.10
2022-09-16T10:52:42.988Z,5.10
2022-09-16T10:55:27.049Z,4.82
2022-09-16T10:58:05.981Z,5.07
2022-09-16T11:00:45.627Z,5.10
2022-09-16T11:03:36.240Z,5.07
2022-09-16T11:06:08.678Z,5.55
2022-09-16T11:09:29.419Z,5.07
2022-09-16T11:11:56.016Z,4.90
2022-09-16T11:14:31.582Z,4.47
2022-09-16T11:17:25.264Z,4.90
2022-09-16T11:20:10.896Z,4.60
2022-09-16T11:23:06.569Z,4.70
2022-09-16T11:26:14.747Z,4.78
2022-09-16T11:28:50.652Z,4.80
2022-09-16T11:31:20.199Z,4.90
2022-09-16T11:34:18.275Z,5.07
2022-09-16T11:37:15.970Z,5.47
2022-09-16T11:40:01.116Z,5.35
2022-09-16T11:42:37.392Z,5.90
2022-09-16T11:45:07.085Z,5.90
2022-09-16T11:50:49.811Z,6.05
2022-09-16T11:53:31.231Z,5.82
2022-09-16T11:56:18.556Z,5.30
2022-09-16T11:58:51.025Z,5.15
2022-09-16T12:01:28.524Z,5.55
2022-09-16T12:04:26.135Z,4.43
2022-09-16T12:07:19.743Z,4.18
2022-09-16T12:09:57.555Z,4.25
2022-09-16T12:12:31.576Z,3.55
2022-09-16T12:15:16.418Z,3.90
2022-09-16T12:17:51.451Z,3.60
2022-09-16T12:20:29.896Z,3.78
2022-09-16T12:23:09.904Z,3.10
2022-09-16T12:26:06.285Z,3.80
2022-09-16T12:28:40.497Z,3.22
2022-09-16T12:31:47.521Z,3.53
2022-09-16T12:34:33.987Z,3.30
2022-09-16T12:37:15.125Z,3.13
2022-09-16T12:39:42.756Z,3.35
2022-09-16T12:42:12.508Z,3.30
2022-09-16T12:47:35.662Z,3.10
2022-09-16T12:50:20.479Z,3.00
2022-09-16T12:53:03.456Z,3.10
2022-09-16T12:55:53.601Z,2.95
2022-09-16T12:58:44.726Z,3.10
2022-09-16T13:01:25.511Z,2.80
2022-09-16T13:03:59.654Z,2.83
2022-09-16T13:06:33.716Z,3.47
2022-09-16T13:09:15.701Z,3.05
2022-09-16T13:14:43.365Z,3.20
2022-09-16T13:17:12.577Z,2.40
2022-09-16T13:19:52.185Z,2.60
2022-09-16T13:25:10.083Z,2.35
2022-09-16T13:27:52.481Z,2.40
2022-09-16T13:30:27.897Z,2.00
2022-09-16T13:32:54.459Z,2.00
2022-09-16T13:35:35.248Z,2.22
2022-09-16T13:38:22.531Z,2.50
2022-09-16T13:41:00.781Z,2.30
2022-09-16T13:43:37.381Z,2.30
2022-09-16T13:49:11.119Z,2.40
2022-09-16T13:51:45.434Z,2.10
2022-09-16T13:55:10.012Z,2.63
2022-09-16T13:57:53.175Z,2.10
2022-09-16T14:00:22.782Z,2.60
2022-09-16T14:03:13.808Z,2.55
2022-09-16T14:06:02.102Z,2.60
2022-09-16T14:08:44.681Z,2.70
2022-09-16T14:11:52.719Z,2.78
2022-09-16T14:17:26.067Z,3.50
2022-09-16T14:19:57.585Z,2.78
2022-09-16T14:22:27.366Z,3.40
2022-09-16T14:27:40.521Z,3.20
2022-09-16T14:30:14.793Z,3.25
2022-09-16T14:32:41.569Z,3.10
2022-09-16T14:35:19.592Z,3.40
2022-09-16T14:37:49.738Z,3.80
2022-09-16T14:40:19.830Z,3.70
2022-09-16T14:42:57.182Z,3.40
2022-09-16T14:45:24.325Z,3.90
2022-09-16T14:47:54.432Z,4.10
2022-09-16T14:50:23.638Z,4.18
2022-09-16T14:52:59.167Z,3.47
2022-09-16T14:55:30.275Z,3.67
2022-09-16T14:57:58.177Z,4.15
2022-09-16T15:00:46.705Z,3.65
2022-09-16T15:03:26.141Z,3.67
2022-09-16T15:05:55.552Z,4.05
2022-09-16T15:08:39.657Z,3.80
2022-09-16T15:11:43.560Z,4.05
2022-09-16T15:14:07.413Z,4.18
2022-09-16T15:16:39.900Z,3.90
2022-09-16T15:19:07.076Z,4.32
2022-09-16T15:21:38.047Z,3.75
2022-09-16T15:24:16.029Z,3.38
2022-09-16T15:26:44.998Z,3.58
2022-09-16T15:29:17.816Z,3.53
2022-09-16T15:31:45.881Z,3.30
2022-09-16T15:34:21.666Z,3.28
2022-09-16T15:36:53.739Z,3.58
2022-09-16T15:39:39.029Z,3.80
2022-09-16T15:42:31.930Z,3.75
2022-09-16T15:45:01.401Z,3.92
2022-09-16T15:47:54.399Z,4.40
2022-09-16T15:50:22.741Z,4.40
2022-09-16T15:52:49.285Z,4.75
2022-09-16T15:55:56.071Z,4.97
2022-09-16T15:58:41.882Z,5.10
2022-09-16T16:01:42.152Z,5.13
2022-09-16T16:04:11.498Z,5.68
2022-09-16T16:06:55.224Z,5.82
2022-09-16T16:09:28.039Z,6.20
2022-09-16T16:11:59.032Z,6.05
2022-09-16T16:14:32.241Z,6.30
2022-09-16T16:17:18.833Z,6.18
2022-09-16T16:19:47.564Z,6.25
2022-09-16T16:22:14.865Z,6.70
2022-09-16T16:24:42.125Z,5.68
2022-09-16T16:27:09.714Z,5.47
2022-09-16T16:29:36.701Z,6.10
2022-09-16T16:32:12.010Z,6.15
2022-09-16T16:34:41.555Z,6.82
2022-09-16T16:37:09.701Z,7.10
2022-09-16T16:39:36.775Z,6.25
2022-09-16T16:42:05.679Z,6.30
2022-09-16T16:44:33.266Z,6.53
2022-09-16T16:47:00.360Z,6.22
2022-09-16T16:49:27.049Z,6.47
2022-09-16T16:52:00.453Z,6.90
2022-09-16T16:54:28.309Z,6.50
2022-09-16T16:56:55.832Z,7.07
2022-09-16T16:59:23.753Z,6.68
2022-09-16T17:01:57.566Z,7.00
2022-09-16T17:04:25.499Z,6.47
2022-09-16T17:07:14.443Z,6.13
2022-09-16T17:09:38.849Z,6.47
2022-09-16T17:12:05.909Z,5.82
2022-09-16T17:14:33.425Z,5.32
2022-09-16T17:17:02.837Z,4.80
2022-09-16T17:19:29.465Z,4.95
2022-09-16T17:21:57.727Z,5.53
2022-09-16T17:24:24.627Z,5.07
2022-09-16T17:26:52.277Z,5.85
2022-09-16T17:29:19.042Z,5.68
2022-09-16T17:31:46.538Z,6.65
2022-09-16T17:34:15.172Z,5.78
2022-09-16T17:36:44.863Z,6.45
2022-09-16T17:39:17.424Z,6.55
2022-09-16T17:41:45.695Z,7.20
2022-09-16T17:44:13.750Z,10.23
2022-09-16T17:46:42.306Z,7.90
2022-09-16T17:49:18.738Z,8.23
2022-09-16T17:51:45.424Z,6.72
2022-09-16T17:54:12.688Z,6.88
2022-09-16T17:56:39.715Z,6.35
2022-09-16T17:59:06.375Z,6.53
2022-09-16T18:01:34.077Z,6.63
2022-09-16T18:04:02.101Z,7.40
2022-09-16T18:06:31.799Z,7.15
2022-09-16T18:09:03.898Z,6.28
2022-09-16T18:11:30.818Z,6.53
2022-09-16T18:14:00.697Z,6.70
2022-09-16T18:18:58.142Z,12.50
2022-09-16T18:21:25.829Z,10.90
2022-09-16T18:23:55.251Z,8.65
2022-09-16T18:26:22.619Z,7.85
2022-09-16T18:29:09.072Z,6.70
2022-09-16T18:31:36.563Z,5.50
2022-09-16T18:34:03.261Z,5.43
2022-09-16T18:36:31.944Z,5.97
2022-09-16T18:38:59.105Z,6.00
2022-09-16T18:41:28.682Z,5.75
2022-09-16T18:43:58.858Z,5.75
2022-09-16T18:46:28.926Z,5.95
2022-09-16T18:48:56.416Z,5.72
2022-09-16T18:51:51.996Z,5.70
2022-09-16T18:54:30.571Z,5.82
2022-09-16T18:56:59.865Z,5.93
2022-09-16T18:59:29.143Z,7.40
2022-09-16T19:01:58.838Z,6.80
2022-09-16T19:06:57.049Z,7.45
2022-09-16T19:09:24.511Z,8.02
2022-09-16T19:11:54.000Z,8.63
2022-09-16T19:14:24.262Z,8.90
2022-09-16T19:16:51.101Z,8.45
2022-09-16T19:19:17.693Z,7.95
2022-09-16T19:21:44.517Z,7.47
2022-09-16T19:24:14.675Z,9.35
2022-09-16T19:26:42.938Z,11.93
2022-09-16T19:29:10.785Z,13.38
2022-09-16T19:31:39.988Z,12.55
2022-09-16T19:34:07.898Z,10.95
2022-09-16T19:36:36.376Z,10.00
2022-09-16T19:39:05.206Z,8.68
2022-09-16T19:41:33.278Z,8.50
2022-09-16T19:44:03.822Z,7.75
2022-09-16T19:46:34.394Z,8.82
2022-09-16T19:49:01.492Z,8.35
2022-09-16T19:51:29.106Z,7.47
2022-09-16T19:53:56.020Z,7.78
2022-09-16T19:56:25.941Z,8.68
2022-09-16T19:58:53.718Z,7.60
2022-09-16T20:01:27.194Z,8.02
2022-09-16T20:03:54.820Z,7.35
2022-09-16T20:06:25.976Z,7.45
2022-09-16T20:08:55.911Z,7.60
2022-09-16T20:11:25.049Z,7.22
2022-09-16T20:13:58.232Z,7.00
2022-09-16T20:16:28.769Z,6.72
2022-09-16T20:18:55.460Z,6.75
2022-09-16T20:21:25.134Z,6.60
2022-09-16T20:23:53.395Z,6.72
2022-09-16T20:26:20.876Z,6.43
2022-09-16T20:28:52.963Z,6.85
2022-09-16T20:31:25.471Z,6.32
2022-09-16T20:33:52.741Z,6.28
2022-09-16T20:36:22.596Z,6.70
2022-09-16T20:41:19.106Z,6.78
2022-09-16T20:43:46.611Z,7.18
2022-09-16T20:46:16.389Z,6.65
2022-09-16T20:51:15.394Z,6.50
2022-09-16T20:53:44.275Z,6.28
2022-09-16T20:56:13.830Z,5.97
2022-09-16T20:58:41.543Z,6.20
2022-09-16T21:01:11.892Z,6.50
2022-09-16T21:03:39.665Z,5.60
2022-09-16T21:06:17.276Z,5.63
2022-09-16T21:08:44.374Z,6.10
2022-09-16T21:11:12.549Z,6.30
2022-09-16T21:13:41.425Z,6.18
2022-09-16T21:16:11.378Z,6.60
2022-09-16T21:18:39.127Z,6.60
2022-09-16T21:21:11.488Z,6.30
2022-09-16T21:23:38.917Z,5.88
2022-09-16T21:26:15.576Z,5.78
2022-09-16T21:28:43.468Z,6.45
2022-09-16T21:31:13.365Z,6.03
2022-09-16T21:33:41.856Z,6.88
2022-09-16T21:36:11.411Z,6.97
2022-09-16T21:38:38.905Z,6.40
2022-09-16T21:41:09.149Z,7.05
2022-09-16T21:43:43.495Z,6.22
2022-09-16T21:46:14.434Z,6.65
2022-09-16T21:48:42.559Z,6.10
2022-09-16T21:51:12.653Z,6.45
2022-09-16T21:53:43.077Z,5.75
2022-09-16T21:56:15.858Z,6.10
2022-09-16T21:58:43.009Z,6.20
2022-09-16T22:01:21.424Z,7.20
2022-09-16T22:03:55.239Z,8.10
2022-09-16T22:06:22.687Z,8.82
2022-09-16T22:08:50.182Z,7.35
2022-09-16T22:11:18.741Z,6.75
2022-09-16T22:13:45.793Z,6.80
2022-09-16T22:16:17.273Z,7.03
2022-09-16T22:18:45.131Z,6.43
2022-09-16T22:21:13.721Z,7.03
2022-09-16T22:23:41.110Z,7.00
2022-09-16T22:26:10.765Z,6.45
2022-09-16T22:28:38.356Z,6.43
2022-09-16T22:31:16.535Z,5.88
2022-09-16T22:33:44.835Z,6.40
2022-09-16T22:36:17.306Z,6.07
2022-09-16T22:38:52.411Z,6.20
2022-09-16T22:41:19.545Z,6.43
2022-09-16T22:43:48.255Z,6.75
2022-09-16T22:46:20.772Z,6.70
2022-09-16T22:48:48.657Z,6.15
2022-09-16T22:51:17.011Z,6.72
2022-09-16T22:53:44.824Z,6.88
2022-09-16T22:56:13.874Z,7.00
2022-09-16T22:58:40.660Z,6.47
2022-09-16T23:01:16.329Z,7.50
2022-09-16T23:03:44.802Z,7.82
2022-09-16T23:06:14.374Z,7.38
2022-09-16T23:08:43.693Z,7.47
2022-09-16T23:11:14.605Z,7.18
2022-09-16T23:13:42.355Z,7.55
2022-09-16T23:16:18.062Z,6.68
2022-09-16T23:18:46.448Z,7.65
2022-09-16T23:21:19.453Z,7.72
2022-09-16T23:23:48.594Z,7.20
2022-09-16T23:26:23.639Z,6.43
2022-09-16T23:28:52.791Z,6.25
2022-09-16T23:31:23.149Z,6.60
2022-09-16T23:33:50.273Z,6.47
2022-09-16T23:36:18.087Z,6.18
2022-09-16T23:38:45.967Z,6.53
2022-09-16T23:41:19.729Z,6.45
2022-09-16T23:43:48.042Z,6.35
2022-09-16T23:46:17.576Z,6.10
2022-09-16T23:48:44.792Z,5.72
2022-09-16T23:51:12.451Z,5.90
2022-09-16T23:53:40.368Z,6.38
2022-09-16T23:56:08.813Z,6.15
2022-09-16T23:58:35.499Z,6.45
